Time;durP1;ratioP1;P1;durP2;ratioP2;P2;SDS_P1;SDS_P2;PMS_P1;PMS_P2;Temp;Humidity;BMP_temperature;BMP_pressure;BME280_temperature;BME280_humidity;BME280_pressure;Samples;Min_cycle;Max_cycle;Signal;HPM_P1;HPM_P2
2022/03/16 00:00:09;;;;;;;0.50;0.10;;;7.30;1.00;;;;;;5033288;28;20474;-75
2022/03/16 00:02:43;;;;;;;8.97;8.63;;;7.30;1.00;;;;;;5039247;28;20467;-75
2022/03/16 00:05:12;;;;;;;0.50;0.10;;;7.30;1.00;;;;;;5031650;28;20540;-74
2022/03/16 00:07:41;;;;;;;0.50;0.10;;;7.30;1.00;;;;;;5032295;28;20520;-74
2022/03/16 00:10:10;;;;;;;0.50;0.10;;;7.20;1.00;;;;;;5031482;28;20479;-74
2022/03/16 00:12:40;;;;;;;0.50;0.10;;;7.20;1.00;;;;;;5032315;28;20443;-74
2022/03/16 00:15:08;;;;;;;0.50;0.10;;;7.30;1.00;;;;;;5031794;28;20450;-75
2022/03/16 00:17:37;;;;;;;0.50;0.10;;;7.30;1.00;;;;;;5032112;28;20488;-74
2022/03/16 00:20:06;;;;;;;0.50;0.20;;;7.20;1.00;;;;;;5044700;28;20463;-73
2022/03/16 00:22:35;;;;;;;0.50;0.10;;;7.20;1.00;;;;;;5048696;28;20525;-73
2022/03/16 00:25:05;;;;;;;0.50;0.10;;;7.20;1.00;;;;;;5045424;28;20454;-74
2022/03/16 00:27:33;;;;;;;0.60;0.30;;;7.20;1.00;;;;;;5040370;28;20452;-73
2022/03/16 00:30:01;;;;;;;0.87;0.73;;;7.20;1.00;;;;;;5033991;28;20510;-74
2022/03/16 00:32:29;;;;;;;0.50;0.20;;;7.20;1.00;;;;;;5032881;28;20961;-73
2022/03/16 00:34:57;;;;;;;0.50;0.10;;;7.20;1.00;;;;;;5033858;28;20464;-73
2022/03/16 00:37:27;;;;;;;0.50;0.10;;;7.20;1.00;;;;;;5032940;28;21047;-74
2022/03/16 00:39:57;;;;;;;0.50;0.10;;;;;;;;;;5033393;28;20491;-75
2022/03/16 00:42:25;;;;;;;0.50;0.10;;;7.20;1.00;;;;;;5036143;28;20445;-74
2022/03/16 00:44:53;;;;;;;0.50;0.10;;;7.20;1.00;;;;;;5036149;28;20447;-73
2022/03/16 00:47:21;;;;;;;0.50;0.10;;;7.20;1.00;;;;;;5035586;28;20444;-73
2022/03/16 00:49:49;;;;;;;0.50;0.10;;;7.20;1.00;;;;;;5036277;28;20469;-73
2022/03/16 00:52:16;;;;;;;0.50;0.10;;;7.20;1.00;;;;;;5036732;28;21064;-73
2022/03/16 00:54:44;;;;;;;0.50;0.10;;;7.10;1.00;;;;;;5036492;28;20456;-73
2022/03/16 00:57:13;;;;;;;0.50;0.10;;;7.10;1.00;;;;;;5036313;28;20492;-73
2022/03/16 00:59:41;;;;;;;0.50;0.10;;;7.00;1.00;;;;;;5035389;28;20474;-73
2022/03/16 01:02:09;;;;;;;0.50;0.10;;;7.00;1.00;;;;;;5045940;28;20440;-73
2022/03/16 01:04:37;;;;;;;0.50;0.10;;;6.80;1.00;;;;;;5056231;28;20482;-73
2022/03/16 01:07:06;;;;;;;0.50;0.10;;;6.70;1.00;;;;;;5052247;28;20536;-73
2022/03/16 01:09:34;;;;;;;0.50;0.10;;;6.60;1.00;;;;;;5035201;28;20467;-73
2022/03/16 01:12:03;;;;;;;0.50;0.10;;;6.60;1.00;;;;;;5036184;28;20493;-73
2022/03/16 01:14:32;;;;;;;0.50;0.10;;;6.50;1.00;;;;;;5035962;28;20455;-73
2022/03/16 01:17:00;;;;;;;0.50;0.10;;;6.50;1.00;;;;;;5035449;28;20540;-73
2022/03/16 01:19:29;;;;;;;0.50;0.10;;;6.50;1.00;;;;;;5035070;28;20441;-73
2022/03/16 01:21:57;;;;;;;0.50;0.10;;;6.40;1.00;;;;;;5035694;28;20956;-73
2022/03/16 01:24:25;;;;;;;0.50;0.10;;;6.40;1.00;;;;;;5034057;28;20543;-73
2022/03/16 01:26:53;;;;;;;1.57;1.47;;;6.30;1.00;;;;;;5034315;28;20993;-73
2022/03/16 01:29:24;;;;;;;0.50;0.10;;;6.30;1.00;;;;;;5035456;28;20451;-73
2022/03/16 01:31:53;;;;;;;0.50;0.10;;;6.30;1.00;;;;;;5034980;28;20446;-73
2022/03/16 01:34:22;;;;;;;0.50;0.10;;;6.30;1.00;;;;;;5035333;28;20523;-73
2022/03/16 01:36:50;;;;;;;0.50;0.10;;;6.30;1.00;;;;;;5035258;28;20540;-73
2022/03/16 01:39:18;;;;;;;0.50;0.10;;;6.20;1.00;;;;;;5035548;28;20477;-73
2022/03/16 01:41:46;;;;;;;0.50;0.10;;;6.20;1.00;;;;;;5035500;28;20451;-73
2022/03/16 01:44:14;;;;;;;0.50;0.10;;;6.10;1.00;;;;;;5035930;28;20832;-73
2022/03/16 01:46:42;;;;;;;0.50;0.10;;;6.10;1.00;;;;;;5035391;28;20475;-73
2022/03/16 01:49:11;;;;;;;0.50;0.10;;;;;;;;;;5036828;28;20811;-75
2022/03/16 01:51:39;;;;;;;0.50;0.10;;;6.00;1.00;;;;;;5036250;28;20484;-74
2022/03/16 01:54:07;;;;;;;0.50;0.10;;;6.00;1.00;;;;;;5035968;28;20448;-73
2022/03/16 01:56:35;;;;;;;0.50;0.10;;;5.90;1.00;;;;;;5036075;28;21010;-73
2022/03/16 01:59:03;;;;;;;0.50;0.10;;;6.10;1.00;;;;;;5038282;28;20987;-73
2022/03/16 02:01:31;;;;;;;0.50;0.10;;;6.00;1.00;;;;;;5037484;28;20477;-73
2022/03/16 02:03:59;;;;;;;0.50;0.10;;;6.00;1.00;;;;;;5037704;28;20461;-73
2022/03/16 02:06:29;;;;;;;0.50;0.10;;;6.00;1.00;;;;;;5036781;28;20494;-73
2022/03/16 02:08:56;;;;;;;0.50;0.10;;;6.00;1.00;;;;;;5030299;28;20445;-73
2022/03/16 02:11:24;;;;;;;0.50;0.10;;;6.00;1.00;;;;;;5034878;28;20469;-73
2022/03/16 02:13:52;;;;;;;0.50;0.10;;;5.90;1.00;;;;;;5035588;28;20457;-73
2022/03/16 02:16:20;;;;;;;0.50;0.10;;;5.90;1.00;;;;;;5034718;28;20457;-73
2022/03/16 02:18:49;;;;;;;0.50;0.10;;;6.00;1.00;;;;;;5034463;28;21021;-73
2022/03/16 02:21:17;;;;;;;0.50;0.10;;;6.10;1.00;;;;;;5033885;28;20470;-74
2022/03/16 02:23:46;;;;;;;0.50;0.10;;;6.00;1.00;;;;;;5034367;28;20450;-73
2022/03/16 02:26:14;;;;;;;0.50;0.10;;;5.90;1.00;;;;;;5033184;28;20992;-73
2022/03/16 02:28:42;;;;;;;0.50;0.10;;;5.80;1.00;;;;;;5033764;28;20533;-73
2022/03/16 02:31:10;;;;;;;0.70;0.57;;;5.80;1.00;;;;;;5033774;28;20486;-73
2022/03/16 02:33:38;;;;;;;0.50;0.10;;;5.70;1.00;;;;;;5033589;28;20466;-73
2022/03/16 02:36:06;;;;;;;0.50;0.10;;;5.90;1.00;;;;;;5033119;28;20822;-73
2022/03/16 02:38:34;;;;;;;0.50;0.10;;;5.90;1.00;;;;;;5033454;28;20477;-73
2022/03/16 02:41:04;;;;;;;0.50;0.10;;;5.90;1.00;;;;;;5033545;28;20465;-73
2022/03/16 02:43:32;;;;;;;0.60;0.30;;;5.90;1.00;;;;;;5033780;28;20809;-73
2022/03/16 02:46:00;;;;;;;0.50;0.10;;;5.90;1.00;;;;;;5033654;28;20533;-73
2022/03/16 02:48:29;;;;;;;0.50;0.10;;;5.90;1.00;;;;;;5044777;28;20442;-73
2022/03/16 02:50:57;;;;;;;0.50;0.10;;;5.80;1.00;;;;;;5049587;28;20476;-72
2022/03/16 02:53:25;;;;;;;0.50;0.10;;;5.80;1.00;;;;;;5049860;28;20445;-72
2022/03/16 02:55:53;;;;;;;0.50;0.10;;;5.60;1.00;;;;;;5042540;28;20449;-72
2022/03/16 02:58:22;;;;;;;0.50;0.10;;;5.60;1.00;;;;;;5034201;28;20575;-72
2022/03/16 03:00:50;;;;;;;0.50;0.10;;;5.70;1.00;;;;;;5034206;28;20461;-73
2022/03/16 03:03:18;;;;;;;0.50;0.10;;;5.70;1.00;;;;;;5034420;28;20446;-73
2022/03/16 03:05:46;;;;;;;0.50;0.10;;;5.70;1.00;;;;;;5033466;28;20461;-73
2022/03/16 03:08:14;;;;;;;0.50;0.10;;;5.70;1.00;;;;;;5033266;28;20437;-73
2022/03/16 03:10:42;;;;;;;0.50;0.10;;;;;;;;;;5033175;28;20469;-73
2022/03/16 03:13:11;;;;;;;0.50;0.10;;;5.60;1.00;;;;;;5033204;28;20454;-73
2022/03/16 03:15:42;;;;;;;0.50;0.10;;;;;;;;;;5032964;28;20446;-73
2022/03/16 03:18:10;;;;;;;0.50;0.10;;;5.60;1.00;;;;;;5033052;28;20499;-72
2022/03/16 03:20:39;;;;;;;0.53;0.27;;;5.60;1.00;;;;;;5033583;28;20485;-73
2022/03/16 03:23:07;;;;;;;3.87;2.67;;;5.60;1.00;;;;;;5032875;28;20462;-72
2022/03/16 03:25:35;;;;;;;0.50;0.10;;;5.60;1.00;;;;;;5030373;28;20461;-72
2022/03/16 03:28:03;;;;;;;0.50;0.10;;;5.70;1.00;;;;;;5032144;28;20804;-73
2022/03/16 03:30:31;;;;;;;0.50;0.10;;;5.60;1.00;;;;;;5030717;28;20485;-72
2022/03/16 03:33:00;;;;;;;0.50;0.10;;;5.60;1.00;;;;;;5031304;28;20957;-72
2022/03/16 03:35:28;;;;;;;0.50;0.10;;;5.60;1.00;;;;;;5032218;28;20449;-72
2022/03/16 03:37:56;;;;;;;0.50;0.10;;;5.60;1.00;;;;;;5024206;28;20448;-73
2022/03/16 03:40:24;;;;;;;27.20;24.60;;;5.60;1.00;;;;;;5031859;28;20842;-72
2022/03/16 03:42:52;;;;;;;0.50;0.10;;;5.70;1.00;;;;;;5032501;28;20457;-74
2022/03/16 03:45:20;;;;;;;0.50;0.10;;;5.70;1.00;;;;;;5032042;28;20445;-72
2022/03/16 03:47:48;;;;;;;0.50;0.10;;;5.60;1.00;;;;;;5031546;28;20449;-73
2022/03/16 03:50:17;;;;;;;0.50;0.10;;;5.70;1.00;;;;;;5032141;28;20884;-72
2022/03/16 03:52:45;;;;;;;0.50;0.10;;;5.70;1.00;;;;;;5031644;28;20927;-72
2022/03/16 03:55:13;;;;;;;0.50;0.10;;;5.70;1.00;;;;;;5032241;28;20463;-72
2022/03/16 03:57:41;;;;;;;0.50;0.10;;;5.70;1.00;;;;;;5032031;28;20527;-72
2022/03/16 04:00:09;;;;;;;0.50;0.10;;;5.70;1.00;;;;;;5031861;28;20498;-72
2022/03/16 04:02:37;;;;;;;0.50;0.10;;;5.70;1.00;;;;;;5032243;28;20448;-73
2022/03/16 04:05:06;;;;;;;0.50;0.10;;;5.70;1.00;;;;;;5032342;28;20447;-72
2022/03/16 04:07:35;;;;;;;0.50;0.20;;;5.70;1.00;;;;;;5031916;28;20457;-73
2022/03/16 04:10:04;;;;;;;0.50;0.10;;;5.80;1.00;;;;;;5032049;28;20536;-73
2022/03/16 04:12:32;;;;;;;0.50;0.10;;;;;;;;;;5032200;28;20509;-72
2022/03/16 04:15:00;;;;;;;0.50;0.10;;;5.80;1.00;;;;;;5033467;28;20551;-71
2022/03/16 04:17:28;;;;;;;0.50;0.20;;;5.80;1.00;;;;;;5036586;28;20450;-72
2022/03/16 04:19:56;;;;;;;0.60;0.37;;;5.70;1.00;;;;;;5038275;28;20486;-72
2022/03/16 04:22:26;;;;;;;0.50;0.30;;;5.70;1.00;;;;;;5037253;28;20440;-72
2022/03/16 04:24:59;;;;;;;0.50;0.10;;;5.70;1.00;;;;;;5036986;28;20441;-72
2022/03/16 04:27:27;;;;;;;0.50;0.10;;;5.70;1.00;;;;;;5038069;28;21217;-74
2022/03/16 04:29:55;;;;;;;0.50;0.10;;;5.70;1.00;;;;;;5051161;22;20488;-76
2022/03/16 04:32:23;;;;;;;0.50;0.20;;;5.70;1.00;;;;;;5009972;28;20467;-76
2022/03/16 04:34:51;;;;;;;0.50;0.10;;;5.80;1.00;;;;;;5038014;28;20935;-76
2022/03/16 04:37:18;;;;;;;0.50;0.10;;;5.80;1.00;;;;;;5039279;28;20445;-74
2022/03/16 04:39:46;;;;;;;0.50;0.10;;;5.80;1.00;;;;;;5017778;28;20486;-75
2022/03/16 04:42:15;;;;;;;0.50;0.10;;;5.80;1.00;;;;;;5016751;28;20546;-76
2022/03/16 04:44:43;;;;;;;0.50;0.10;;;5.80;1.00;;;;;;5017915;28;20457;-76
2022/03/16 04:47:11;;;;;;;0.60;0.20;;;5.80;1.00;;;;;;5033515;28;20812;-75
2022/03/16 04:49:39;;;;;;;0.50;0.10;;;5.70;1.00;;;;;;5016803;28;20440;-76
2022/03/16 04:52:07;;;;;;;0.50;0.10;;;5.70;1.00;;;;;;5018573;28;20453;-75
2022/03/16 04:54:35;;;;;;;0.50;0.10;;;5.70;1.00;;;;;;5022481;28;20453;-74
2022/03/16 04:57:03;;;;;;;0.50;0.10;;;5.60;1.00;;;;;;5023867;28;20449;-75
2022/03/16 04:59:32;;;;;;;0.50;0.10;;;5.60;1.00;;;;;;5019323;28;20485;-75
2022/03/16 05:02:00;;;;;;;0.50;0.10;;;5.60;1.00;;;;;;5037864;28;20471;-74
2022/03/16 05:04:28;;;;;;;0.50;0.10;;;5.60;1.00;;;;;;5038391;28;20452;-74
2022/03/16 05:06:57;;;;;;;0.50;0.10;;;5.60;1.00;;;;;;5037347;28;20486;-76
2022/03/16 05:09:25;;;;;;;0.57;0.17;;;5.60;1.00;;;;;;5037036;28;20525;-76
2022/03/16 05:11:53;;;;;;;2.20;1.50;;;5.60;1.00;;;;;;5033046;28;20481;-78
2022/03/16 05:14:21;;;;;;;0.60;0.43;;;5.50;1.00;;;;;;5015877;28;20709;-76
2022/03/16 05:16:50;;;;;;;0.50;0.30;;;5.50;1.00;;;;;;5014812;28;20921;-76
2022/03/16 05:19:18;;;;;;;0.70;0.70;;;5.50;1.00;;;;;;5014157;28;20446;-74
2022/03/16 05:21:46;;;;;;;0.50;0.10;;;5.50;1.00;;;;;;5014314;28;21009;-75
2022/03/16 05:24:13;;;;;;;1.27;1.23;;;5.50;1.00;;;;;;5014716;28;20983;-75
2022/03/16 05:26:41;;;;;;;0.97;0.33;;;5.40;1.00;;;;;;5016939;28;20476;-76
2022/03/16 05:29:09;;;;;;;0.77;0.77;;;5.40;1.00;;;;;;5034337;28;20998;-76
2022/03/16 05:31:37;;;;;;;0.50;0.20;;;5.40;1.00;;;;;;5020780;28;20846;-74
2022/03/16 05:34:06;;;;;;;0.60;0.30;;;5.30;1.00;;;;;;5026650;28;20469;-74
2022/03/16 05:36:34;;;;;;;0.50;0.10;;;5.30;1.00;;;;;;5024434;28;20445;-75
2022/03/16 05:39:03;;;;;;;0.50;0.10;;;5.30;1.00;;;;;;5023005;28;20456;-76
2022/03/16 05:41:31;;;;;;;0.50;0.10;;;5.20;1.00;;;;;;5026252;28;20486;-74
2022/03/16 05:43:59;;;;;;;0.50;0.40;;;5.10;1.00;;;;;;5034503;28;20461;-75
2022/03/16 05:46:27;;;;;;;0.50;0.10;;;5.20;1.00;;;;;;5034369;28;20445;-75
2022/03/16 05:48:55;;;;;;;0.50;0.10;;;5.10;1.00;;;;;;5029175;28;20465;-75
2022/03/16 05:51:24;;;;;;;0.50;0.10;;;5.10;1.00;;;;;;5031143;28;20496;-76
2022/03/16 05:53:52;;;;;;;0.50;0.10;;;5.10;1.00;;;;;;5031271;28;20457;-76
2022/03/16 05:56:20;;;;;;;0.50;0.10;;;5.10;1.00;;;;;;5043128;28;20440;-75
2022/03/16 05:58:48;;;;;;;0.50;0.10;;;5.20;1.00;;;;;;5014299;28;20450;-76
2022/03/16 06:01:16;;;;;;;0.50;0.10;;;5.20;1.00;;;;;;5013203;28;20494;-75
2022/03/16 06:03:44;;;;;;;0.50;0.10;;;5.20;1.00;;;;;;5014069;28;20500;-75
2022/03/16 06:06:12;;;;;;;0.50;0.10;;;5.30;1.00;;;;;;5015564;28;20945;-75
2022/03/16 06:08:41;;;;;;;0.50;0.10;;;5.30;1.00;;;;;;5019083;28;20925;-74
2022/03/16 06:11:09;;;;;;;0.50;0.10;;;5.30;1.00;;;;;;5024540;28;20462;-74
2022/03/16 06:13:37;;;;;;;0.50;0.10;;;5.30;1.00;;;;;;5033806;28;20449;-75
2022/03/16 06:16:05;;;;;;;0.50;0.10;;;5.40;1.00;;;;;;5033580;28;20455;-76
2022/03/16 06:18:34;;;;;;;0.50;0.20;;;;;;;;;;5033312;28;20452;-76
2022/03/16 06:21:01;;;;;;;0.50;0.10;;;5.40;1.00;;;;;;5036370;28;20493;-75
2022/03/16 06:23:29;;;;;;;0.50;0.10;;;5.30;1.00;;;;;;4999419;28;20444;-76
2022/03/16 06:26:01;;;;;;;0.60;0.40;;;5.30;1.00;;;;;;5026004;28;20461;-74
2022/03/16 06:28:29;;;;;;;3.90;1.07;;;5.30;1.00;;;;;;5014616;28;20428;-74
2022/03/16 06:30:56;;;;;;;0.50;0.10;;;5.20;1.00;;;;;;5013678;28;20466;-75
2022/03/16 06:33:28;;;;;;;0.50;0.20;;;5.20;1.00;;;;;;5017120;28;20524;-76
2022/03/16 06:35:56;;;;;;;2.00;1.90;;;5.10;1.00;;;;;;5021393;28;20441;-74
2022/03/16 06:38:24;;;;;;;0.50;0.10;;;5.10;1.00;;;;;;5019192;28;20815;-76
2022/03/16 06:40:52;;;;;;;0.73;0.73;;;5.20;1.00;;;;;;5026628;28;20500;-77
2022/03/16 06:43:21;;;;;;;0.50;0.10;;;5.10;1.00;;;;;;5017729;28;20453;-78
2022/03/16 06:45:49;;;;;;;0.53;0.30;;;5.10;1.00;;;;;;5014493;28;20449;-76
2022/03/16 06:48:21;;;;;;;1.30;1.10;;;5.10;1.00;;;;;;5013175;28;20965;-75
2022/03/16 06:50:49;;;;;;;0.50;0.10;;;5.10;1.00;;;;;;5014631;28;20468;-76
2022/03/16 06:53:17;;;;;;;0.50;0.17;;;5.00;1.00;;;;;;5013998;28;20453;-76
2022/03/16 06:55:45;;;;;;;0.60;0.47;;;5.10;1.00;;;;;;5026555;28;20975;-76
2022/03/16 06:58:12;;;;;;;0.60;0.20;;;5.10;1.00;;;;;;5015509;28;20448;-76
2022/03/16 07:00:42;;;;;;;2.80;1.17;;;5.00;1.00;;;;;;5009731;28;20488;-74
2022/03/16 07:03:10;;;;;;;1.77;1.27;;;5.00;1.00;;;;;;5012860;28;20548;-76
2022/03/16 07:05:40;;;;;;;1.53;1.40;;;4.90;1.00;;;;;;5019028;28;20472;-76
2022/03/16 07:08:09;;;;;;;0.50;0.10;;;4.90;1.00;;;;;;5021510;28;20957;-76
2022/03/16 07:10:40;;;;;;;1.13;0.70;;;4.80;1.00;;;;;;5024130;28;20454;-76
2022/03/16 07:13:11;;;;;;;1.47;0.70;;;4.80;1.00;;;;;;5027184;28;20532;-76
2022/03/16 07:15:39;;;;;;;1.03;0.93;;;4.80;1.00;;;;;;5027234;28;20488;-76
2022/03/16 07:18:09;;;;;;;0.60;0.10;;;4.80;1.00;;;;;;5042915;28;20517;-76
2022/03/16 07:20:37;;;;;;;1.90;1.67;;;4.90;1.00;;;;;;5035158;28;20550;-75
2022/03/16 07:23:06;;;;;;;0.87;0.87;;;4.90;1.00;;;;;;5029225;28;20454;-77
2022/03/16 07:25:37;;;;;;;1.53;1.43;;;4.90;1.00;;;;;;5023524;28;20439;-76
2022/03/16 07:28:05;;;;;;;0.50;0.10;;;4.90;1.00;;;;;;5023499;28;20456;-76
2022/03/16 07:30:33;;;;;;;0.50;0.20;;;4.90;1.00;;;;;;5021851;28;20502;-76
2022/03/16 07:33:01;;;;;;;0.50;0.30;;;4.90;1.00;;;;;;5022698;28;20529;-76
2022/03/16 07:35:31;;;;;;;0.50;0.10;;;5.00;1.00;;;;;;5016905;28;20459;-75
2022/03/16 07:38:01;;;;;;;0.50;0.10;;;4.90;1.00;;;;;;5015044;28;20460;-76
2022/03/16 07:40:31;;;;;;;0.80;0.30;;;5.00;1.00;;;;;;5016537;28;20495;-75
2022/03/16 07:42:59;;;;;;;0.50;0.10;;;5.10;1.00;;;;;;5014399;28;20536;-76
2022/03/16 07:45:27;;;;;;;1.20;1.00;;;5.20;1.00;;;;;;5012961;28;20461;-76
2022/03/16 07:47:56;;;;;;;0.50;0.20;;;5.10;1.00;;;;;;5023296;28;20536;-76
2022/03/16 07:50:24;;;;;;;0.50;0.10;;;5.20;1.00;;;;;;5034172;28;20513;-75
2022/03/16 07:52:56;;;;;;;14.10;12.37;;;5.20;1.00;;;;;;5027761;28;20451;-76
2022/03/16 07:55:24;;;;;;;2.53;0.53;;;5.30;1.00;;;;;;5024282;28;20459;-75
2022/03/16 07:57:52;;;;;;;0.50;0.10;;;5.30;1.00;;;;;;5023170;28;20452;-75
2022/03/16 08:00:21;;;;;;;0.50;0.20;;;5.30;1.00;;;;;;5028399;28;20461;-76
2022/03/16 08:02:55;;;;;;;0.50;0.10;;;5.40;1.00;;;;;;5017900;28;20515;-76
2022/03/16 08:05:24;;;;;;;1.40;1.30;;;5.40;1.00;;;;;;5013788;28;20461;-76
2022/03/16 08:07:51;;;;;;;0.50;0.10;;;5.40;1.00;;;;;;5011030;28;20467;-75
2022/03/16 08:10:21;;;;;;;0.50;0.10;;;5.40;1.00;;;;;;5030248;28;20582;-76
2022/03/16 08:12:49;;;;;;;0.50;0.10;;;5.50;1.00;;;;;;5036024;28;20590;-75
2022/03/16 08:15:17;;;;;;;0.60;0.40;;;5.50;1.00;;;;;;5019113;28;20450;-75
2022/03/16 08:17:44;;;;;;;0.60;0.23;;;5.60;1.00;;;;;;5011011;28;20481;-75
2022/03/16 08:20:13;;;;;;;0.50;0.10;;;5.70;1.00;;;;;;5022983;28;20473;-75
2022/03/16 08:22:41;;;;;;;2.43;1.73;;;5.70;1.00;;;;;;5037268;28;20476;-75
2022/03/16 08:25:11;;;;;;;0.50;0.10;;;5.80;1.00;;;;;;5016870;28;20462;-75
2022/03/16 08:27:40;;;;;;;0.50;0.10;;;5.90;1.00;;;;;;5021585;28;20455;-76
2022/03/16 08:30:10;;;;;;;0.50;0.10;;;5.90;1.00;;;;;;5021134;28;20875;-75
2022/03/16 08:32:38;;;;;;;0.50;0.10;;;5.90;1.00;;;;;;5030728;28;20460;-75
2022/03/16 08:35:07;;;;;;;0.50;0.10;;;5.90;1.00;;;;;;5034054;28;20441;-76
2022/03/16 08:37:35;;;;;;;0.50;0.10;;;5.90;1.00;;;;;;5038096;28;20449;-75
2022/03/16 08:40:03;;;;;;;0.50;0.10;;;5.90;1.00;;;;;;5038846;28;20469;-75
2022/03/16 08:42:31;;;;;;;0.50;0.10;;;6.00;1.00;;;;;;5026704;28;20493;-76
2022/03/16 08:45:01;;;;;;;0.50;0.10;;;6.00;1.00;;;;;;5021420;28;20485;-75
2022/03/16 08:47:29;;;;;;;0.50;0.10;;;6.00;1.00;;;;;;5020032;28;20456;-75
2022/03/16 08:49:57;;;;;;;0.60;0.10;;;6.10;1.00;;;;;;5032611;28;20454;-76
2022/03/16 08:52:25;;;;;;;0.50;0.10;;;6.10;1.00;;;;;;5018961;28;20444;-76
2022/03/16 08:54:52;;;;;;;2.20;0.77;;;6.20;1.00;;;;;;5019524;28;20449;-76
2022/03/16 08:57:21;;;;;;;0.50;0.10;;;6.20;1.00;;;;;;5017665;28;20459;-76
2022/03/16 08:59:50;;;;;;;0.50;0.10;;;6.30;1.00;;;;;;5016808;28;20560;-76
2022/03/16 09:02:20;;;;;;;0.80;0.80;;;6.30;1.00;;;;;;5019620;28;20841;-77
2022/03/16 09:04:48;;;;;;;0.50;0.10;;;6.30;1.00;;;;;;5034736;28;20446;-75
2022/03/16 09:07:16;;;;;;;0.50;0.10;;;6.30;1.00;;;;;;5027234;28;20525;-76
2022/03/16 09:09:44;;;;;;;0.50;0.10;;;6.40;1.00;;;;;;5021169;28;20790;-76
2022/03/16 09:12:13;;;;;;;1.53;1.50;;;6.40;1.00;;;;;;5015457;28;20451;-77
2022/03/16 09:14:41;;;;;;;0.50;0.10;;;6.40;1.00;;;;;;5009808;28;20470;-76
2022/03/16 09:17:10;;;;;;;0.60;0.40;;;6.40;1.00;;;;;;5009981;28;20527;-77
2022/03/16 09:19:40;;;;;;;0.50;0.10;;;6.40;1.00;;;;;;5012948;28;20576;-75
2022/03/16 09:22:08;;;;;;;4.53;4.33;;;6.50;1.00;;;;;;5013919;28;20479;-76
2022/03/16 09:24:38;;;;;;;0.50;0.17;;;6.60;1.00;;;;;;5025932;28;20454;-76
2022/03/16 09:27:06;;;;;;;1.80;1.70;;;6.70;1.00;;;;;;5017874;28;20932;-75
2022/03/16 09:29:34;;;;;;;0.50;0.10;;;6.80;1.00;;;;;;5013728;28;20451;-75
2022/03/16 09:32:07;;;;;;;2.00;1.80;;;6.90;1.00;;;;;;5020769;28;20467;-75
2022/03/16 09:34:36;;;;;;;2.73;1.07;;;6.90;1.00;;;;;;5014931;28;20482;-75
2022/03/16 09:37:06;;;;;;;0.50;0.23;;;7.00;1.00;;;;;;5011414;28;20454;-75
2022/03/16 09:39:33;;;;;;;0.50;0.10;;;6.90;1.00;;;;;;5014447;28;20957;-76
2022/03/16 09:42:03;;;;;;;0.50;0.10;;;7.00;1.00;;;;;;4999878;28;20498;-75
2022/03/16 09:44:31;;;;;;;0.50;0.10;;;7.00;1.00;;;;;;4976872;28;20452;-75
2022/03/16 09:47:09;;;;;;;0.50;0.10;;;7.00;1.00;;;;;;4985326;28;20494;-76
2022/03/16 09:49:39;;;;;;;0.50;0.10;;;7.10;1.00;;;;;;5017198;28;20505;-75
2022/03/16 09:52:09;;;;;;;0.50;0.10;;;7.10;1.00;;;;;;4987958;28;20455;-75
2022/03/16 09:54:38;;;;;;;0.50;0.10;;;7.20;1.00;;;;;;4997733;28;20451;-75
2022/03/16 09:57:06;;;;;;;0.50;0.20;;;7.30;1.00;;;;;;4991674;28;20455;-74
2022/03/16 09:59:34;;;;;;;0.50;0.10;;;7.30;1.00;;;;;;4997545;28;20462;-75
2022/03/16 10:02:06;;;;;;;0.50;0.20;;;7.40;1.00;;;;;;4986137;28;20499;-78
2022/03/16 10:04:36;;;;;;;0.50;0.10;;;7.60;1.00;;;;;;4986774;28;20463;-80
2022/03/16 10:07:06;;;;;;;0.50;0.10;;;7.80;1.00;;;;;;4987392;28;21226;-78
2022/03/16 10:15:11;;;;;;;0.60;0.20;;;8.20;1.00;;;;;;4983005;28;20441;-79
2022/03/16 10:17:46;;;;;;;2.07;1.97;;;8.20;1.00;;;;;;4985175;28;20517;-79
2022/03/16 10:20:23;;;;;;;0.50;0.20;;;8.30;1.00;;;;;;4987926;28;20542;-80
2022/03/16 10:23:02;;;;;;;0.60;0.20;;;8.40;1.00;;;;;;4987684;28;20489;-74
2022/03/16 10:25:34;;;;;;;0.70;0.60;;;8.50;1.00;;;;;;4990311;28;20558;-79
2022/03/16 10:28:13;;;;;;;0.50;0.10;;;8.60;1.00;;;;;;4990723;28;20812;-80
2022/03/16 10:30:56;;;;;;;0.50;0.10;;;8.60;1.00;;;;;;4987059;28;20498;-78
2022/03/16 10:33:26;;;;;;;0.50;0.10;;;8.70;1.00;;;;;;4993262;28;20490;-79
2022/03/16 10:36:00;;;;;;;0.50;0.10;;;8.80;1.00;;;;;;4985176;28;20753;-79
2022/03/16 10:38:29;;;;;;;0.60;0.10;;;8.90;1.00;;;;;;5000339;28;20452;-80
2022/03/16 10:41:11;;;;;;;0.57;0.20;;;9.00;1.00;;;;;;4991169;28;20472;-75
2022/03/16 10:46:35;;;;;;;0.50;0.10;;;9.20;1.00;;;;;;5004891;28;20467;-80
2022/03/16 10:49:05;;;;;;;0.60;0.20;;;9.20;1.00;;;;;;5000518;28;20502;-79
2022/03/16 10:51:34;;;;;;;0.50;0.10;;;10.00;1.00;;;;;;4999431;28;20475;-79
2022/03/16 10:54:23;;;;;;;0.50;0.10;;;9.30;1.00;;;;;;5007414;28;20473;-79
2022/03/16 10:56:54;;;;;;;0.50;0.10;;;9.30;1.00;;;;;;5010397;28;20512;-80
2022/03/16 10:59:28;;;;;;;0.60;0.10;;;9.40;1.00;;;;;;5008737;28;20856;-80
2022/03/16 11:02:03;;;;;;;0.60;0.10;;;9.50;1.00;;;;;;5009225;28;20448;-79
2022/03/16 11:04:33;;;;;;;0.60;0.10;;;9.60;1.00;;;;;;5013345;28;20475;-76
2022/03/16 11:07:04;;;;;;;0.60;0.10;;;9.60;1.00;;;;;;5012724;28;20444;-78
2022/03/16 11:09:33;;;;;;;0.60;0.40;;;9.70;1.00;;;;;;5001019;28;20449;-78
2022/03/16 11:14:49;;;;;;;0.80;0.53;;;9.80;1.00;;;;;;5001561;28;20445;-81
2022/03/16 11:17:17;;;;;;;0.60;0.10;;;9.90;1.00;;;;;;4998845;28;20448;-79
2022/03/16 11:19:47;;;;;;;0.80;0.57;;;10.00;1.00;;;;;;4998853;28;20499;-80
2022/03/16 11:22:21;;;;;;;0.60;0.10;;;10.00;1.00;;;;;;5004318;28;20433;-80
2022/03/16 11:24:57;;;;;;;0.60;0.10;;;10.10;1.00;;;;;;5002284;28;20439;-80
2022/03/16 11:27:40;;;;;;;0.60;0.10;;;10.20;1.00;;;;;;4980629;28;20530;-80
2022/03/16 11:30:19;;;;;;;1.80;1.70;;;10.30;1.00;;;;;;4980213;28;20473;-80
2022/03/16 11:32:47;;;;;;;0.60;0.10;;;10.40;1.00;;;;;;4978797;28;20442;-78
2022/03/16 11:35:17;;;;;;;0.60;0.10;;;10.50;1.00;;;;;;4980023;28;20528;-79
2022/03/16 11:37:49;;;;;;;0.67;0.30;;;10.60;1.00;;;;;;4986279;28;20513;-79
2022/03/16 11:40:20;;;;;;;0.60;0.10;;;10.70;1.00;;;;;;5000065;28;20518;-78
2022/03/16 11:43:18;;;;;;;0.83;0.83;;;10.80;1.00;;;;;;4988485;28;20485;-77
2022/03/16 11:45:50;;;;;;;0.60;0.10;;;10.90;1.00;;;;;;4980655;28;20466;-78
2022/03/16 11:48:41;;;;;;;0.60;0.10;;;11.10;1.00;;;;;;4987190;28;20536;-78
2022/03/16 11:51:23;;;;;;;0.77;0.77;;;11.10;1.00;;;;;;4988082;28;20548;-79
2022/03/16 11:54:11;;;;;;;0.60;0.10;;;11.30;1.00;;;;;;4987446;28;20444;-80
2022/03/16 11:56:53;;;;;;;0.60;0.10;;;11.40;1.00;;;;;;4990489;28;20873;-79
2022/03/16 11:59:32;;;;;;;0.60;0.10;;;11.60;1.00;;;;;;4999596;28;20552;-78
2022/03/16 12:02:26;;;;;;;0.60;0.10;;;11.70;1.00;;;;;;4989719;28;20488;-78
2022/03/16 12:05:03;;;;;;;4.33;4.13;;;11.90;1.00;;;;;;4997167;28;20489;-79
2022/03/16 12:07:35;;;;;;;0.60;0.10;;;11.90;1.00;;;;;;4992038;28;20448;-78
2022/03/16 12:10:10;;;;;;;0.60;0.10;;;12.10;1.00;;;;;;4989148;28;20481;-80
2022/03/16 12:12:51;;;;;;;0.60;0.10;;;12.20;1.00;;;;;;4982594;28;20536;-78
2022/03/16 12:15:27;;;;;;;0.60;0.10;;;12.30;1.00;;;;;;5013131;28;21007;-78
2022/03/16 12:18:28;;;;;;;0.60;0.10;;;12.40;1.00;;;;;;4999211;28;20542;-79
2022/03/16 12:21:03;;;;;;;0.60;0.10;;;12.60;1.00;;;;;;4993340;28;20466;-79
2022/03/16 12:23:52;;;;;;;0.60;0.10;;;12.70;1.00;;;;;;4993409;28;20491;-80
2022/03/16 12:26:22;;;;;;;0.60;0.10;;;12.80;1.00;;;;;;4999829;28;20458;-80
2022/03/16 12:28:59;;;;;;;0.60;0.10;;;12.90;1.00;;;;;;5029997;28;20540;-81
2022/03/16 12:31:30;;;;;;;0.60;0.10;;;13.00;1.00;;;;;;4992967;28;20536;-80
2022/03/16 12:33:59;;;;;;;0.60;0.10;;;13.00;1.00;;;;;;5002450;28;20463;-78
2022/03/16 12:36:29;;;;;;;0.60;0.10;;;13.00;1.00;;;;;;5020217;28;20450;-80
2022/03/16 12:38:59;;;;;;;0.80;0.67;;;13.00;1.00;;;;;;5008841;28;20458;-80
2022/03/16 12:44:16;;;;;;;0.60;0.10;;;13.10;1.00;;;;;;5009209;28;20573;-81
2022/03/16 12:46:53;;;;;;;0.73;0.50;;;13.20;1.00;;;;;;5009302;28;20452;-79
2022/03/16 12:49:23;;;;;;;2.60;0.60;;;13.30;1.00;;;;;;5004786;28;20928;-79
2022/03/16 12:51:53;;;;;;;0.60;0.10;;;13.50;1.00;;;;;;5006979;28;20505;-78
2022/03/16 12:54:28;;;;;;;1.67;1.17;;;13.70;99.90;;;;;;4991078;28;20497;-79
2022/03/16 12:57:01;;;;;;;0.60;0.10;;;13.80;99.90;;;;;;5002925;28;20544;-79
2022/03/16 12:59:32;;;;;;;0.60;0.20;;;13.80;99.90;;;;;;4996140;28;20997;-80
2022/03/16 13:02:03;;;;;;;0.60;0.10;;;13.90;99.90;;;;;;4994864;28;20483;-79
2022/03/16 13:04:32;;;;;;;0.60;0.10;;;14.00;99.90;;;;;;4979468;28;20475;-78
2022/03/16 13:07:01;;;;;;;0.60;0.10;;;14.00;99.90;;;;;;4979541;28;20456;-79
2022/03/16 13:09:30;;;;;;;1.20;0.73;;;14.10;99.90;;;;;;4978047;28;20422;-79
2022/03/16 13:12:06;;;;;;;1.17;0.80;;;14.10;99.90;;;;;;4989760;28;20491;-79
2022/03/16 13:14:36;;;;;;;0.60;0.10;;;14.20;99.90;;;;;;4980030;28;20525;-80
2022/03/16 13:17:07;;;;;;;0.90;0.67;;;14.20;99.90;;;;;;4978616;28;20440;-78
2022/03/16 13:19:37;;;;;;;0.60;0.10;;;14.20;99.90;;;;;;4985182;28;20514;-77
2022/03/16 13:22:06;;;;;;;0.60;0.20;;;14.20;99.90;;;;;;4993187;28;20480;-78
2022/03/16 13:24:36;;;;;;;0.60;0.20;;;14.20;99.90;;;;;;4990880;28;20530;-79
2022/03/16 13:27:06;;;;;;;0.70;0.33;;;14.20;99.90;;;;;;5015717;28;20539;-78
2022/03/16 13:29:36;;;;;;;0.60;0.20;;;14.20;99.90;;;;;;5004049;28;20534;-73
2022/03/16 13:32:07;;;;;;;0.60;0.20;;;14.10;99.90;;;;;;4998658;28;21021;-76
2022/03/16 13:34:37;;;;;;;0.60;0.10;;;14.00;99.90;;;;;;4994393;28;20452;-74